Time;durP1;ratioP1;P1;durP2;ratioP2;P2;SDS_P1;SDS_P2;PMS_P1;PMS_P2;Temp;Humidity;BMP_temperature;BMP_pressure;BME280_temperature;BME280_humidity;BME280_pressure;Samples;Min_cycle;Max_cycle;Signal;HPM_P1;HPM_P2
2024/04/17 00:01:14;;;;;;;5.43;4.67;;;;;;;6.57;100.00;99959.66;5345945;26;20274;-84
2024/04/17 00:03:39;;;;;;;5.87;4.23;;;;;;;6.57;100.00;99958.78;5345115;26;20786;-82
2024/04/17 00:06:08;;;;;;;5.63;5.07;;;;;;;6.55;100.00;99950.94;5345695;26;20275;-82
2024/04/17 00:08:36;;;;;;;5.20;4.60;;;;;;;6.54;100.00;99953.66;5345438;26;20573;-83
2024/04/17 00:11:05;;;;;;;5.70;4.80;;;;;;;6.52;100.00;99952.91;5345229;26;20259;-83
2024/04/17 00:13:31;;;;;;;6.83;4.27;;;;;;;6.52;100.00;99951.09;5345291;26;20275;-84
2024/04/17 00:16:01;;;;;;;6.00;4.87;;;;;;;6.51;100.00;99953.84;5348358;26;20311;-83
2024/04/17 00:18:27;;;;;;;7.27;5.00;;;;;;;6.51;100.00;99951.19;5347770;26;20383;-84
2024/04/17 00:20:56;;;;;;;8.30;4.77;;;;;;;6.50;100.00;99946.84;5348012;26;20277;-85
2024/04/17 00:23:22;;;;;;;5.60;4.73;;;;;;;6.48;100.00;99954.88;5348377;26;20228;-83
2024/04/17 00:25:53;;;;;;;6.10;4.97;;;;;;;6.46;100.00;99947.94;5347970;26;20276;-84
2024/04/17 00:28:20;;;;;;;6.30;4.60;;;;;;;6.46;100.00;99945.31;5348205;26;21004;-83
2024/04/17 00:30:48;;;;;;;6.60;5.40;;;;;;;6.44;100.00;99944.56;5348192;26;20305;-84
2024/04/17 00:33:14;;;;;;;6.80;5.07;;;;;;;6.43;100.00;99951.66;5348310;26;20229;-82
2024/04/17 00:35:42;;;;;;;7.77;4.87;;;;;;;6.43;100.00;99943.72;5348590;26;20274;-82
2024/04/17 00:38:08;;;;;;;6.40;4.60;;;;;;;6.43;100.00;99950.81;5349572;26;20894;-84
2024/04/17 00:40:37;;;;;;;5.23;4.57;;;;;;;6.45;100.00;99957.69;5348478;26;20229;-83
2024/04/17 00:43:06;;;;;;;6.10;4.83;;;;;;;6.43;100.00;99949.00;5348917;26;20297;-81
2024/04/17 00:45:43;;;;;;;6.40;4.77;;;;;;;6.43;100.00;99953.44;5348495;26;20229;-84
2024/04/17 00:48:11;;;;;;;7.93;4.17;;;;;;;6.46;100.00;99966.47;5348623;26;20275;-84
2024/04/17 00:50:42;;;;;;;8.57;4.60;;;;;;;6.43;100.00;99954.31;5349089;26;20225;-84
2024/04/17 00:53:23;;;;;;;7.23;4.40;;;;;;;6.44;100.00;99955.16;5348558;26;20816;-83
2024/04/17 00:56:19;;;;;;;6.53;4.67;;;;;;;6.45;100.00;99954.22;5349476;26;20221;-83
2024/04/17 00:58:48;;;;;;;9.27;5.03;;;;;;;6.45;100.00;99954.22;5347205;26;20275;-81
2024/04/17 01:01:16;;;;;;;7.17;4.17;;;;;;;6.46;100.00;99958.53;5348178;26;20224;-85
2024/04/17 01:03:42;;;;;;;7.43;4.57;;;;;;;6.46;100.00;99955.88;5348418;26;20322;-83
2024/04/17 01:06:11;;;;;;;6.37;4.30;;;;;;;6.48;100.00;99954.00;5347930;26;20876;-82
2024/04/17 01:08:37;;;;;;;6.83;4.50;;;;;;;6.50;100.00;99953.00;5348235;26;20233;-82
2024/04/17 01:11:05;;;;;;;6.17;4.17;;;;;;;6.51;100.00;99956.50;5348226;26;20271;-83
2024/04/17 01:13:31;;;;;;;5.37;3.87;;;;;;;6.49;100.00;99955.72;5349023;26;20229;-82
2024/04/17 01:16:02;;;;;;;12.13;4.60;;;;;;;6.48;100.00;99943.44;5347461;26;20229;-82
2024/04/17 01:18:28;;;;;;;5.67;4.23;;;;;;;6.47;100.00;99941.72;5348281;26;20248;-85
2024/04/17 01:20:57;;;;;;;9.73;4.40;;;;;;;6.48;100.00;99952.22;5348196;26;20225;-82
2024/04/17 01:23:23;;;;;;;6.27;4.00;;;;;;;6.47;100.00;99949.66;5347515;26;20362;-83
2024/04/17 01:25:53;;;;;;;6.23;4.17;;;;;;;6.48;100.00;99943.44;5346956;26;20240;-84
2024/04/17 01:28:19;;;;;;;5.80;3.80;;;;;;;6.46;100.00;99950.59;5347438;26;20253;-84
2024/04/17 01:30:47;;;;;;;7.43;4.10;;;;;;;6.44;100.00;99941.94;5347563;26;20339;-83
2024/04/17 01:33:13;;;;;;;5.37;3.50;;;;;;;6.44;100.00;99947.22;5347232;26;20284;-85
2024/04/17 01:35:41;;;;;;;6.77;3.70;;;;;;;6.44;100.00;99952.50;5347953;26;20661;-84
2024/04/17 01:38:06;;;;;;;5.73;4.13;;;;;;;6.43;100.00;99948.16;5347224;26;20328;-82
2024/04/17 01:40:34;;;;;;;5.00;3.57;;;;;;;6.43;100.00;99942.88;5347043;26;20232;-81
2024/04/17 01:43:03;;;;;;;4.87;3.63;;;;;;;6.45;100.00;99949.75;5347813;26;20320;-82
2024/04/17 01:45:31;;;;;;;6.20;3.50;;;;;;;6.49;100.00;99955.72;5348055;26;20271;-83
2024/04/17 01:47:56;;;;;;;7.03;3.90;;;;;;;6.50;100.00;99952.13;5347472;26;20312;-82
2024/04/17 01:50:29;;;;;;;6.63;3.77;;;;;;;6.45;100.00;99952.38;5345755;26;21033;-83
2024/04/17 01:52:55;;;;;;;5.90;3.53;;;;;;;6.47;100.00;99952.31;5347116;26;20446;-83
2024/04/17 01:55:26;;;;;;;4.33;3.30;;;;;;;6.45;100.00;99960.31;5346966;26;20799;-84
2024/04/17 01:57:51;;;;;;;9.87;3.73;;;;;;;6.41;100.00;99958.81;5347728;26;20236;-83
2024/04/17 02:00:22;;;;;;;6.30;3.50;;;;;;;6.40;100.00;99961.56;5347509;26;20403;-82
2024/04/17 02:02:48;;;;;;;6.83;3.30;;;;;;;6.38;100.00;99956.34;5346776;26;20241;-83
2024/04/17 02:05:16;;;;;;;8.97;3.87;;;;;;;6.37;100.00;99954.63;5347102;26;20812;-82
2024/04/17 02:07:42;;;;;;;6.80;4.20;;;;;;;6.35;100.00;99958.31;5346968;26;20225;-82
2024/04/17 02:10:10;;;;;;;5.90;3.60;;;;;;;6.35;100.00;99955.66;5347100;26;20330;-82
2024/04/17 02:12:35;;;;;;;6.60;3.10;;;;;;;6.34;100.00;99953.97;5347382;26;20305;-84
2024/04/17 02:15:04;;;;;;;8.60;3.67;;;;;;;6.30;100.00;99949.78;5347360;26;20291;-82
2024/04/17 02:17:32;;;;;;;11.37;4.77;;;;;;;6.29;100.00;99951.56;5346892;26;20558;-83
2024/04/17 02:20:00;;;;;;;11.40;3.80;;;;;;;6.26;100.00;99947.34;5347054;26;20240;-84
2024/04/17 02:22:26;;;;;;;5.83;3.50;;;;;;;6.25;100.00;99944.78;5347505;26;20229;-84
2024/04/17 02:24:54;;;;;;;7.73;3.60;;;;;;;6.24;100.00;99951.00;5346891;26;20263;-84
2024/04/17 02:27:19;;;;;;;7.70;3.10;;;;;;;6.25;100.00;99945.63;5347447;26;20293;-83
2024/04/17 02:29:51;;;;;;;8.43;3.80;;;;;;;6.26;100.00;99951.75;5347653;26;20346;-81
2024/04/17 02:32:16;;;;;;;8.73;4.00;;;;;;;6.26;100.00;99949.97;5347246;26;20306;-83
2024/04/17 02:34:47;;;;;;;7.20;3.70;;;;;;;6.28;100.00;99957.78;5347368;26;20233;-83
2024/04/17 02:37:12;;;;;;;4.90;3.20;;;;;;;6.28;100.00;99953.34;5345689;26;20221;-83
2024/04/17 02:39:40;;;;;;;8.93;3.63;;;;;;;6.27;100.00;99954.28;5347288;26;20240;-82
2024/04/17 02:42:06;;;;;;;7.07;3.50;;;;;;;6.25;100.00;99958.84;5346817;26;20300;-83
2024/04/17 02:44:34;;;;;;;9.87;3.50;;;;;;;6.23;100.00;99963.38;5346358;26;20334;-84
2024/04/17 02:47:01;;;;;;;6.80;3.80;;;;;;;6.19;100.00;99961.81;5346564;26;20836;-82
2024/04/17 02:49:29;;;;;;;8.33;3.30;;;;;;;6.16;100.00;99959.34;5346562;26;20245;-83
2024/04/17 02:51:57;;;;;;;9.17;3.40;;;;;;;6.12;100.00;99960.44;5346420;26;20329;-84
2024/04/17 02:54:25;;;;;;;6.53;3.23;;;;;;;6.08;100.00;99963.38;5346737;26;20717;-83
2024/04/17 02:56:51;;;;;;;8.73;3.63;;;;;;;6.06;100.00;99966.09;5346170;26;20323;-83
2024/04/17 02:59:19;;;;;;;7.83;3.77;;;;;;;6.00;100.00;99971.72;5346692;26;20245;-82
2024/04/17 03:01:44;;;;;;;6.23;3.30;;;;;;;5.98;100.00;99970.94;5346969;26;20229;-83
2024/04/17 03:04:12;;;;;;;9.17;3.60;;;;;;;5.94;100.00;99972.03;5346234;26;20308;-84
2024/04/17 03:06:38;;;;;;;6.03;3.27;;;;;;;5.89;100.00;99974.09;5346812;26;20225;-84
2024/04/17 03:09:09;;;;;;;8.67;3.30;;;;;;;5.84;100.00;99973.47;5346957;26;21117;-83
2024/04/17 03:11:37;;;;;;;7.60;2.97;;;;;;;5.80;100.00;99969.28;5346432;26;20394;-83
2024/04/17 03:14:02;;;;;;;11.23;2.80;;;;;;;5.76;100.00;99970.38;5347102;26;20764;-82
2024/04/17 03:16:31;;;;;;;7.43;2.90;;;;;;;5.72;100.00;99974.16;5346423;26;20233;-82
2024/04/17 03:18:56;;;;;;;7.97;2.70;;;;;;;5.67;100.00;99976.16;5346355;26;20241;-83
2024/04/17 03:21:25;;;;;;;9.77;3.97;;;;;;;5.62;100.00;99978.19;5346701;26;20273;-83
2024/04/17 03:23:50;;;;;;;8.30;3.00;;;;;;;5.59;100.00;99982.69;5346705;26;20267;-82
2024/04/17 03:26:21;;;;;;;5.80;2.73;;;;;;;5.56;100.00;99982.88;5346848;26;20651;-83
2024/04/17 03:28:47;;;;;;;7.30;2.63;;;;;;;5.57;100.00;99986.34;5346415;26;20241;-84
2024/04/17 03:31:15;;;;;;;10.60;2.40;;;;;;;5.56;100.00;99990.78;5345770;26;20775;-83
2024/04/17 03:33:41;;;;;;;6.50;2.33;;;;;;;5.54;100.00;99992.69;5346147;26;20265;-81
2024/04/17 03:36:10;;;;;;;5.20;2.40;;;;;;;5.51;100.00;99995.47;5345005;26;20225;-84
2024/04/17 03:38:39;;;;;;;5.93;2.30;;;;;;;5.51;100.00;99999.91;5345630;26;20241;-82
2024/04/17 03:41:04;;;;;;;6.87;2.23;;;;;;;5.48;100.00;100002.72;5345676;26;20229;-83
2024/04/17 03:43:35;;;;;;;6.67;2.27;;;;;;;5.46;100.00;100001.94;5344907;26;20229;-82
2024/04/17 03:46:04;;;;;;;5.73;2.20;;;;;;;5.47;100.00;100001.00;5345570;26;20259;-83
2024/04/17 03:48:33;;;;;;;5.17;2.93;;;;;;;5.46;100.00;100001.94;5344769;26;20241;-82
2024/04/17 03:50:58;;;;;;;6.47;2.53;;;;;;;5.45;100.00;100003.72;5345943;26;20272;-82
2024/04/17 03:53:27;;;;;;;5.83;2.03;;;;;;;5.44;100.00;100007.28;5345233;26;20232;-82
2024/04/17 03:55:56;;;;;;;9.53;2.47;;;;;;;5.45;100.00;100002.88;5345032;26;20721;-83
2024/04/17 03:58:22;;;;;;;6.27;2.00;;;;;;;5.43;100.00;99999.44;5345622;26;20283;-84
2024/04/17 04:00:52;;;;;;;7.47;2.47;;;;;;;5.42;100.00;100003.88;5345729;26;20580;-83
2024/04/17 04:03:18;;;;;;;5.73;2.40;;;;;;;5.41;100.00;100007.44;5345467;26;20240;-83
2024/04/17 04:05:47;;;;;;;4.80;2.20;;;;;;;5.42;100.00;100008.31;5345390;26;20940;-84
2024/04/17 04:08:12;;;;;;;6.20;2.30;;;;;;;5.42;100.00;100010.94;5345879;26;20267;-84
2024/04/17 04:10:41;;;;;;;5.00;2.23;;;;;;;5.41;100.00;100012.72;5345039;26;20229;-82
2024/04/17 04:13:07;;;;;;;6.97;2.10;;;;;;;5.37;100.00;100008.56;5345674;26;20233;-83
2024/04/17 04:15:35;;;;;;;8.33;2.20;;;;;;;5.38;100.00;100015.53;5344569;26;20288;-85
2024/04/17 04:18:04;;;;;;;6.33;2.07;;;;;;;5.40;100.00;100015.44;5345351;26;20233;-85
2024/04/17 04:20:32;;;;;;;7.40;2.17;;;;;;;5.40;100.00;100011.03;5345787;26;20233;-84
2024/04/17 04:23:07;;;;;;;5.53;2.00;;;;;;;5.41;100.00;100022.44;5345970;26;20619;-85
2024/04/17 04:25:35;;;;;;;5.43;2.33;;;;;;;5.39;100.00;100014.59;5347225;26;20229;-83
2024/04/17 04:28:01;;;;;;;7.03;1.80;;;;;;;5.38;100.00;100018.16;5344855;26;20287;-87
2024/04/17 04:30:31;;;;;;;6.47;2.57;;;;;;;5.38;100.00;100028.72;5344643;26;20717;-81
2024/04/17 04:32:57;;;;;;;6.57;1.93;;;;;;;5.37;100.00;100020.91;5344357;26;20273;-85
2024/04/17 04:35:28;;;;;;;8.00;2.33;;;;;;;5.34;100.00;100027.19;5344392;26;20330;-83
2024/04/17 04:37:54;;;;;;;8.67;2.30;;;;;;;5.33;100.00;100027.28;5344344;26;20232;-84
2024/04/17 04:40:22;;;;;;;3.60;2.27;;;;;;;5.32;100.00;100031.72;5345166;26;20595;-84
2024/04/17 04:42:48;;;;;;;6.00;2.63;;;;;;;5.33;100.00;100030.78;5345729;26;20229;-84
2024/04/17 04:45:16;;;;;;;5.37;1.90;;;;;;;5.31;100.00;100024.72;5345005;26;20771;-82
2024/04/17 04:47:42;;;;;;;4.00;1.93;;;;;;;5.31;100.00;100043.19;5343673;26;20229;-84
2024/04/17 04:50:10;;;;;;;7.80;2.67;;;;;;;5.34;100.00;100048.31;5343735;26;20251;-84
2024/04/17 04:52:39;;;;;;;5.93;2.23;;;;;;;5.33;100.00;100038.69;5344502;26;20229;-82
2024/04/17 04:55:08;;;;;;;11.10;2.60;;;;;;;5.34;100.00;100048.31;5344692;26;20303;-83
2024/04/17 04:57:33;;;;;;;7.20;2.10;;;;;;;5.36;100.00;100051.75;5343344;26;20228;-86
2024/04/17 05:00:02;;;;;;;6.67;2.50;;;;;;;5.39;100.00;100048.06;5343664;26;20237;-85
2024/04/17 05:02:27;;;;;;;8.13;2.77;;;;;;;5.41;100.00;100044.41;5346908;26;20233;-82
2024/04/17 05:04:55;;;;;;;5.73;3.23;;;;;;;5.43;100.00;100044.34;5346885;26;20319;-83
2024/04/17 05:07:21;;;;;;;6.33;2.10;;;;;;;5.47;100.00;100043.25;5347699;26;20229;-84
2024/04/17 05:09:52;;;;;;;5.47;2.13;;;;;;;5.50;100.00;100046.59;5347615;26;20291;-84
2024/04/17 05:12:18;;;;;;;6.00;2.70;;;;;;;5.54;100.00;100055.22;5348068;26;20717;-84
2024/04/17 05:14:46;;;;;;;7.60;2.23;;;;;;;5.55;100.00;100046.38;5348342;26;20275;-83
2024/04/17 05:17:12;;;;;;;7.53;2.63;;;;;;;5.58;100.00;100049.69;5348125;26;20271;-84
2024/04/17 05:19:40;;;;;;;5.67;2.37;;;;;;;5.63;100.00;100051.22;5348524;26;20233;-85
2024/04/17 05:22:06;;;;;;;7.33;1.90;;;;;;;5.66;100.00;100056.34;5348280;26;20233;-82
2024/04/17 05:24:34;;;;;;;10.30;2.40;;;;;;;5.68;100.00;100057.13;5348594;26;20628;-83
2024/04/17 05:27:02;;;;;;;5.97;2.60;;;;;;;5.69;100.00;100056.19;5348389;26;20280;-84
2024/04/17 05:29:31;;;;;;;4.27;2.13;;;;;;;5.70;100.00;100055.28;5348136;26;20233;-83
2024/04/17 05:31:56;;;;;;;8.33;2.53;;;;;;;5.70;100.00;100060.56;5347462;26;20367;-84
2024/04/17 05:34:25;;;;;;;7.47;2.20;;;;;;;5.71;100.00;100064.91;5347759;26;20236;-84
2024/04/17 05:36:50;;;;;;;7.53;2.77;;;;;;;5.71;100.00;100063.13;5348159;26;20229;-85
2024/04/17 05:39:19;;;;;;;6.47;2.50;;;;;;;5.71;100.00;100063.13;5347797;26;20729;-83
2024/04/17 05:41:44;;;;;;;9.17;2.30;;;;;;;5.72;100.00;100058.69;5348187;26;20229;-84
2024/04/17 05:44:15;;;;;;;7.07;3.00;;;;;;;5.70;100.00;100065.84;5346934;26;20284;-85
2024/04/17 05:46:41;;;;;;;7.83;3.57;;;;;;;5.69;100.00;100066.78;5347685;26;20229;-85
2024/04/17 05:49:10;;;;;;;6.23;2.43;;;;;;;5.69;100.00;100061.47;5347368;26;20621;-82
2024/04/17 05:51:35;;;;;;;8.53;2.63;;;;;;;5.69;100.00;100062.34;5346269;26;20221;-82
2024/04/17 05:54:03;;;;;;;11.23;2.87;;;;;;;5.72;100.00;100069.25;5347018;26;20275;-83
2024/04/17 05:56:29;;;;;;;7.23;3.07;;;;;;;5.75;100.00;100069.06;5345822;26;20229;-82
2024/04/17 05:58:57;;;;;;;15.10;8.00;;;;;;;5.77;100.00;100069.84;5347236;26;20264;-83
2024/04/17 06:01:26;;;;;;;13.17;4.53;;;;;;;5.77;100.00;100077.78;5346938;26;20267;-82
2024/04/17 06:03:54;;;;;;;16.33;9.47;;;;;;;5.79;100.00;100074.13;5346553;26;20229;-83
2024/04/17 06:06:20;;;;;;;12.77;5.57;;;;;;;5.82;100.00;100076.59;5346706;26;20713;-83
2024/04/17 06:08:48;;;;;;;6.43;3.90;;;;;;;5.85;100.00;100079.09;5346508;26;20274;-84
2024/04/17 06:11:14;;;;;;;7.97;3.87;;;;;;;5.89;100.00;100071.88;5328005;26;20230;-84
2024/04/17 06:13:43;;;;;;;6.67;3.03;;;;;;;5.92;100.00;100080.47;5311668;27;20230;-83
2024/04/17 06:16:09;;;;;;;5.50;2.80;;;;;;;6.01;100.00;100088.88;5324896;26;20238;-84
2024/04/17 06:18:39;;;;;;;8.63;3.13;;;;;;;6.09;100.00;100087.50;5338013;26;20328;-82
2024/04/17 06:21:05;;;;;;;7.73;2.43;;;;;;;6.14;100.00;100093.41;5341567;26;20600;-83
2024/04/17 06:23:33;;;;;;;6.10;2.57;;;;;;;6.18;100.00;100088.81;5343692;26;20249;-83
2024/04/17 06:25:59;;;;;;;6.70;2.77;;;;;;;6.16;100.00;100083.59;5341965;26;20249;-83
2024/04/17 06:28:27;;;;;;;5.20;2.70;;;;;;;6.19;100.00;100086.09;5342775;26;20902;-83
2024/04/17 06:30:53;;;;;;;9.13;2.80;;;;;;;6.21;100.00;100097.44;5338496;26;20656;-85
2024/04/17 06:33:22;;;;;;;11.10;2.83;;;;;;;6.25;100.00;100096.34;5339024;26;20241;-84
2024/04/17 06:35:50;;;;;;;5.37;2.83;;;;;;;6.35;100.00;100094.03;5346444;26;20233;-86
2024/04/17 06:38:18;;;;;;;8.87;2.40;;;;;;;6.49;100.00;100090.63;5344875;26;20271;-82
2024/04/17 06:40:44;;;;;;;9.57;2.90;;;;;;;6.61;100.00;100092.63;5345601;26;20279;-83
2024/04/17 06:43:12;;;;;;;6.10;1.70;;;;;;;6.68;100.00;100088.66;5328760;26;20776;-85
2024/04/17 06:45:38;;;;;;;5.47;1.80;;;;;;;6.74;100.00;100096.28;5311021;26;20226;-85
2024/04/17 06:48:08;;;;;;;7.07;2.10;;;;;;;6.79;100.00;100091.59;5311332;26;20700;-84
2024/04/17 06:50:34;;;;;;;8.03;2.03;;;;;;;6.82;100.00;100095.81;5311953;27;20343;-82
2024/04/17 06:53:05;;;;;;;6.53;2.30;;;;;;;6.84;100.00;100100.09;5311318;26;20233;-84
2024/04/17 06:55:31;;;;;;;6.47;1.70;;;;;;;6.87;100.00;100093.78;5336948;26;20236;-84
2024/04/17 06:57:59;;;;;;;5.20;2.47;;;;;;;6.86;99.33;100095.56;5346435;26;20271;-83
2024/04/17 07:00:31;;;;;;;6.90;1.90;;;;;;;6.89;99.14;100097.19;5344701;26;20237;-84
2024/04/17 07:02:59;;;;;;;4.13;1.83;;;;;;;6.90;98.49;100096.25;5345633;26;20672;-83
2024/04/17 07:05:27;;;;;;;7.40;2.40;;;;;;;6.87;99.11;100099.91;5345372;26;20229;-82
2024/04/17 07:07:55;;;;;;;4.70;2.00;;;;;;;6.89;98.65;100095.41;5344618;26;20289;-82
2024/04/17 07:10:23;;;;;;;5.50;2.00;;;;;;;6.91;98.71;100101.47;5345642;26;20229;-84
2024/04/17 07:12:52;;;;;;;4.83;1.70;;;;;;;6.93;98.92;100106.66;5345732;26;20244;-84
2024/04/17 07:15:18;;;;;;;9.13;2.23;;;;;;;6.95;98.71;100107.44;5345933;26;20232;-84
2024/04/17 07:17:46;;;;;;;7.73;2.60;;;;;;;6.95;98.23;100108.28;5344632;26;20264;-85
2024/04/17 07:20:15;;;;;;;7.90;2.00;;;;;;;6.95;98.52;100100.34;5345176;26;20241;-83
2024/04/17 07:22:43;;;;;;;9.47;2.90;;;;;;;6.93;98.61;100104.88;5345145;26;20221;-84
2024/04/17 07:25:10;;;;;;;6.83;2.37;;;;;;;6.91;98.45;100104.09;5344431;26;20228;-81
2024/04/17 07:27:41;;;;;;;7.13;2.07;;;;;;;6.91;98.56;100103.25;5345440;26;20292;-83
2024/04/17 07:30:09;;;;;;;6.30;1.60;;;;;;;6.91;98.30;100105.91;5345748;26;20237;-84
2024/04/17 07:32:37;;;;;;;4.83;2.00;;;;;;;6.91;98.10;100105.91;5345463;26;20225;-83
2024/04/17 07:35:04;;;;;;;6.30;1.80;;;;;;;6.94;98.75;100098.66;5345148;26;20713;-82
2024/04/17 07:37:33;;;;;;;5.40;2.03;;;;;;;7.01;99.19;100109.72;5344929;26;20275;-82
2024/04/17 07:39:59;;;;;;;8.93;1.80;;;;;;;7.05;98.37;100108.59;5343531;26;20241;-82
2024/04/17 07:42:27;;;;;;;8.07;2.23;;;;;;;7.08;98.55;100107.59;5344591;26;20350;-85
2024/04/17 07:44:55;;;;;;;9.33;3.57;;;;;;;7.13;98.49;100106.38;5344544;26;20225;-84
2024/04/17 07:47:24;;;;;;;6.67;2.10;;;;;;;7.18;98.68;100114.03;5344881;26;20234;-85
2024/04/17 07:49:50;;;;;;;8.17;2.70;;;;;;;7.22;98.13;100104.97;5345316;26;20285;-85
2024/04/17 07:52:18;;;;;;;5.60;2.00;;;;;;;7.24;98.44;100101.31;5345280;26;20237;-83
2024/04/17 07:54:44;;;;;;;8.10;2.27;;;;;;;7.29;98.65;100104.56;5346045;26;20291;-83
2024/04/17 07:57:12;;;;;;;6.63;2.00;;;;;;;7.34;99.35;100100.78;5346710;26;20232;-83
2024/04/17 07:59:38;;;;;;;7.13;2.20;;;;;;;7.41;99.32;100105.63;5346165;26;20285;-81
2024/04/17 08:02:09;;;;;;;3.23;1.67;;;;;;;7.51;98.50;100109.44;5345655;26;20276;-81
2024/04/17 08:04:35;;;;;;;5.73;1.90;;;;;;;7.56;97.55;100107.34;5346333;26;20287;-85
2024/04/17 08:07:03;;;;;;;4.83;2.47;;;;;;;7.59;97.53;100109.81;5345682;26;20229;-85
2024/04/17 08:09:29;;;;;;;5.67;2.20;;;;;;;7.62;97.16;100112.28;5344831;26;20240;-84
2024/04/17 08:12:07;;;;;;;8.33;2.40;;;;;;;7.67;96.49;100122.63;5346678;26;20614;-83
2024/04/17 08:14:33;;;;;;;2.83;1.97;;;;;;;7.66;96.01;100119.13;5352422;26;20270;-82
2024/04/17 08:17:01;;;;;;;5.20;2.47;;;;;;;7.68;96.22;100124.34;5351840;26;20224;-83
2024/04/17 08:19:29;;;;;;;5.57;2.40;;;;;;;7.68;96.14;100115.53;5331746;26;20296;-81
2024/04/17 08:21:57;;;;;;;6.53;2.90;;;;;;;7.72;96.61;100119.69;5337660;26;20725;-82
2024/04/17 08:24:23;;;;;;;7.50;2.17;;;;;;;7.74;96.90;100129.25;5350799;26;20237;-84
2024/04/17 08:26:53;;;;;;;6.43;2.30;;;;;;;7.76;96.09;100129.16;5345368;26;20289;-83
2024/04/17 08:29:19;;;;;;;6.43;3.40;;;;;;;7.78;95.11;100128.13;5345761;26;21005;-82
2024/04/17 08:31:47;;;;;;;6.43;4.13;;;;;;;7.73;93.70;100126.69;5346929;26;20236;-82
2024/04/17 08:34:13;;;;;;;5.20;3.57;;;;;;;7.67;93.07;100130.59;5346291;26;20237;-83
2024/04/17 08:36:44;;;;;;;6.73;3.20;;;;;;;7.61;92.82;100133.59;5350084;26;20275;-81
2024/04/17 08:39:10;;;;;;;6.70;3.50;;;;;;;7.57;93.26;100132.06;5351240;26;20776;-83
2024/04/17 08:41:46;;;;;;;6.33;3.70;;;;;;;7.55;93.20;100137.44;5350363;26;20419;-84
2024/04/17 08:44:15;;;;;;;4.90;3.30;;;;;;;7.57;94.02;100140.84;5350662;26;20228;-83
2024/04/17 08:46:45;;;;;;;4.77;3.30;;;;;;;7.58;93.98;100129.31;5349678;26;20228;-83
2024/04/17 08:49:12;;;;;;;4.33;2.83;;;;;;;7.60;92.36;100134.53;5347987;26;20240;-80
2024/04/17 08:51:45;;;;;;;4.03;2.50;;;;;;;7.58;90.94;100139.91;5348174;26;20291;-82
2024/04/17 08:54:11;;;;;;;4.93;2.57;;;;;;;7.58;89.28;100141.72;5338996;26;20293;-83
2024/04/17 08:56:40;;;;;;;3.30;1.90;;;;;;;7.54;88.04;100142.84;5348163;26;20232;-82
2024/04/17 08:59:07;;;;;;;2.83;2.00;;;;;;;7.46;86.98;100145.09;5347986;26;20578;-83
2024/04/17 09:01:38;;;;;;;3.47;1.80;;;;;;;7.41;87.19;100144.50;5346713;26;20277;-85
2024/04/17 09:04:04;;;;;;;5.10;2.60;;;;;;;7.38;87.26;100136.72;5344373;26;20364;-85
2024/04/17 09:06:33;;;;;;;4.57;3.03;;;;;;;7.39;87.85;100138.44;5344675;26;20245;-84
2024/04/17 09:09:03;;;;;;;5.47;3.23;;;;;;;7.42;87.95;100144.41;5324029;26;20279;-83
2024/04/17 09:11:32;;;;;;;3.53;2.60;;;;;;;7.47;88.64;100142.34;5362193;26;20362;-84
2024/04/17 09:13:58;;;;;;;3.97;2.77;;;;;;;7.54;89.81;100145.47;5348050;26;20276;-83
2024/04/17 09:16:26;;;;;;;3.67;2.00;;;;;;;7.59;89.27;100146.06;5346400;26;20725;-83
2024/04/17 09:18:52;;;;;;;3.23;1.90;;;;;;;7.61;88.95;100139.75;5346074;26;20240;-85
2024/04/17 09:21:20;;;;;;;3.07;1.90;;;;;;;7.63;87.81;100147.59;5349733;26;20241;-84
2024/04/17 09:23:46;;;;;;;4.23;2.53;;;;;;;7.63;87.49;100139.66;5349759;26;20237;-84
2024/04/17 09:26:19;;;;;;;3.23;2.17;;;;;;;7.66;87.44;100148.28;5347077;26;20307;-83
2024/04/17 09:28:45;;;;;;;2.87;2.43;;;;;;;7.70;86.82;100142.81;5346171;26;20245;-82
2024/04/17 09:31:14;;;;;;;3.20;2.60;;;;;;;7.74;87.54;100146.94;5347968;26;20342;-83
2024/04/17 09:33:44;;;;;;;4.60;2.73;;;;;;;7.84;87.91;100148.13;5351227;26;20237;-82
2024/04/17 09:36:12;;;;;;;3.30;2.87;;;;;;;7.91;87.73;100139.69;5347014;26;20237;-82
2024/04/17 09:38:38;;;;;;;4.83;3.33;;;;;;;8.04;88.47;100141.63;5346785;26;20565;-82
2024/04/17 09:41:07;;;;;;;7.37;4.50;;;;;;;8.16;89.22;100133.75;5346736;26;20292;-82
2024/04/17 09:43:40;;;;;;;5.20;4.13;;;;;;;8.28;88.72;100130.34;5347247;26;20237;-82
2024/04/17 09:46:11;;;;;;;7.97;4.50;;;;;;;8.41;89.25;100132.28;5347413;26;20233;-83
2024/04/17 09:48:41;;;;;;;5.73;4.20;;;;;;;8.50;88.29;100139.66;5345758;26;20658;-82
2024/04/17 09:51:11;;;;;;;4.80;3.77;;;;;;;8.57;88.49;100139.19;5330294;26;20713;-82
2024/04/17 09:53:38;;;;;;;3.17;2.87;;;;;;;8.64;86.94;100142.28;5346661;26;20268;-81
2024/04/17 09:56:08;;;;;;;9.63;4.53;;;;;;;8.68;85.93;100138.50;5347012;26;20251;-82
2024/04/17 09:58:38;;;;;;;8.10;4.07;;;;;;;8.75;86.31;100139.81;5364029;26;20241;-83
2024/04/17 10:01:09;;;;;;;5.13;3.97;;;;;;;8.87;86.20;100136.38;5334741;26;20702;-83
2024/04/17 10:03:36;;;;;;;6.10;4.27;;;;;;;8.95;86.78;100142.03;5345895;26;20245;-83
2024/04/17 10:06:06;;;;;;;5.30;3.93;;;;;;;9.04;85.76;100129.97;5352552;26;20245;-83
2024/04/17 10:08:33;;;;;;;6.20;4.87;;;;;;;9.15;84.08;100129.25;5352828;26;20565;-83
2024/04/17 10:11:02;;;;;;;7.87;4.40;;;;;;;9.31;84.35;100122.84;5346255;26;20285;-84
2024/04/17 10:13:28;;;;;;;6.00;4.00;;;;;;;9.50;83.58;100119.78;5346063;26;20252;-81
2024/04/17 10:15:59;;;;;;;4.90;3.77;;;;;;;9.66;81.86;100109.84;5347101;26;20307;-82
2024/04/17 10:18:25;;;;;;;8.47;3.60;;;;;;;9.84;79.85;100109.53;5346652;26;20684;-83
2024/04/17 10:20:55;;;;;;;8.47;3.83;;;;;;;9.90;79.02;100114.41;5336987;26;20229;-82
2024/04/17 10:23:24;;;;;;;5.47;3.20;;;;;;;9.97;76.39;100105.91;5346698;26;20275;-83
2024/04/17 10:25:56;;;;;;;3.90;3.03;;;;;;;9.99;75.55;100104.00;5344759;26;20790;-83
2024/04/17 10:28:23;;;;;;;4.90;2.93;;;;;;;10.10;74.88;100100.56;5344503;26;20294;-84
2024/04/17 10:30:55;;;;;;;5.63;2.77;;;;;;;10.25;75.04;100104.84;5350276;26;20232;-83
2024/04/17 10:33:34;;;;;;;5.63;2.70;;;;;;;10.37;71.90;100089.84;5343335;26;20245;-81
2024/04/17 10:36:03;;;;;;;5.90;2.90;;;;;;;10.49;72.66;100098.75;5349798;26;20233;-83
2024/04/17 10:38:33;;;;;;;3.90;2.60;;;;;;;10.72;74.97;100098.81;5347584;26;20278;-84
2024/04/17 10:41:05;;;;;;;5.40;3.17;;;;;;;10.86;72.02;100100.47;5346784;26;20339;-84
2024/04/17 10:43:32;;;;;;;4.80;2.40;;;;;;;10.92;71.19;100100.03;5341864;26;20234;-83
2024/04/17 10:46:01;;;;;;;4.43;2.10;;;;;;;10.98;69.60;100088.03;5354272;26;20756;-82
2024/04/17 10:48:27;;;;;;;3.53;2.40;;;;;;;11.00;69.45;100092.28;5341347;26;20279;-84
2024/04/17 10:50:58;;;;;;;3.77;2.30;;;;;;;11.09;69.76;100096.97;5344204;26;20749;-83
2024/04/17 10:53:26;;;;;;;2.50;1.70;;;;;;;11.12;68.17;100095.84;5344076;26;20277;-83
2024/04/17 10:55:56;;;;;;;4.17;1.83;;;;;;;11.14;67.30;100088.59;5353841;26;20370;-82
2024/04/17 10:58:24;;;;;;;4.57;2.50;;;;;;;11.10;67.38;100088.00;5342787;26;20363;-81
2024/04/17 11:00:52;;;;;;;5.10;1.90;;;;;;;11.04;67.95;100093.78;5356355;26;20574;-82
2024/04/17 11:03:18;;;;;;;4.70;1.90;;;;;;;11.04;69.21;100098.25;5345272;26;20251;-82
2024/04/17 11:05:48;;;;;;;5.63;2.10;;;;;;;10.96;67.49;100089.97;5350484;26;20249;-82
2024/04/17 11:08:16;;;;;;;2.73;2.10;;;;;;;10.90;67.86;100080.63;5342238;26;20762;-83
2024/04/17 11:10:44;;;;;;;4.87;2.27;;;;;;;10.89;67.75;100086.91;5350446;26;20230;-82
2024/04/17 11:13:15;;;;;;;4.53;2.33;;;;;;;10.87;67.65;100083.50;5347978;26;20285;-82
2024/04/17 11:15:43;;;;;;;6.07;2.40;;;;;;;10.88;67.54;100082.56;5345862;26;20237;-81
2024/04/17 11:18:10;;;;;;;4.10;1.80;;;;;;;10.90;67.78;100080.63;5343703;26;20241;-84
2024/04/17 11:20:39;;;;;;;4.93;2.20;;;;;;;10.88;68.17;100074.56;5343664;26;20309;-82
2024/04/17 11:23:06;;;;;;;3.83;2.13;;;;;;;10.93;70.78;100076.84;5343309;26;20267;-83
2024/04/17 11:25:42;;;;;;;3.80;2.47;;;;;;;10.96;71.05;100088.16;5343587;26;20235;-84
2024/04/17 11:28:11;;;;;;;3.30;2.10;;;;;;;10.96;70.37;100090.81;5344095;26;20241;-84
2024/04/17 11:30:40;;;;;;;4.13;2.60;;;;;;;10.93;71.12;100104.34;5343431;26;20629;-82
2024/04/17 11:33:06;;;;;;;6.23;3.70;;;;;;;10.94;72.26;100118.53;5343942;26;20239;-82